Time;durP1;ratioP1;P1;durP2;ratioP2;P2;SDS_P1;SDS_P2;PMS_P1;PMS_P2;Temp;Humidity;BMP_temperature;BMP_pressure;BME280_temperature;BME280_humidity;BME280_pressure;Samples;Min_cycle;Max_cycle;Signal;HPM_P1;HPM_P2
2024/01/14 00:04:24;;;;;;;21.75;7.57;;;;;;;2.35;65.19;100415.91;10329548;28;20415;-57
2024/01/14 00:09:25;;;;;;;16.73;6.57;;;;;;;2.32;65.48;100426.75;10334807;28;20046;-56
2024/01/14 00:14:27;;;;;;;22.00;7.95;;;;;;;2.40;65.21;100420.84;10335234;28;20054;-57
2024/01/14 00:19:28;;;;;;;18.65;7.25;;;;;;;2.46;65.62;100404.44;10340815;28;20061;-58
2024/01/14 00:24:30;;;;;;;20.73;7.38;;;;;;;2.47;65.41;100400.84;10324314;28;20412;-56
2024/01/14 00:29:31;;;;;;;17.48;6.95;;;;;;;2.57;65.08;100396.47;10341196;28;20100;-57
2024/01/14 00:34:33;;;;;;;22.33;8.15;;;;;;;2.51;65.22;100380.22;10328266;28;20054;-57
2024/01/14 00:39:38;;;;;;;20.38;7.05;;;;;;;2.54;65.11;100371.97;10339738;28;20046;-57
2024/01/14 00:44:43;;;;;;;22.73;8.20;;;;;;;2.48;65.35;100370.66;10339757;28;20046;-56
2024/01/14 00:49:44;;;;;;;23.35;8.77;;;;;;;2.53;65.21;100360.53;10339093;28;20038;-57
2024/01/14 00:54:46;;;;;;;20.00;8.07;;;;;;;2.52;65.07;100361.50;10336998;28;20065;-57
2024/01/14 00:59:47;;;;;;;14.35;6.18;;;;;;;2.54;65.37;100367.50;10331489;28;20050;-59
2024/01/14 01:04:49;;;;;;;18.25;6.65;;;;;;;2.58;64.87;100360.16;10345965;28;20162;-59
2024/01/14 01:09:50;;;;;;;20.15;7.90;;;;;;;2.56;65.40;100354.13;10340732;28;20050;-59
2024/01/14 01:14:52;;;;;;;18.08;6.45;;;;;;;2.56;65.51;100352.31;10339090;28;20038;-58
2024/01/14 01:19:53;;;;;;;19.88;6.93;;;;;;;2.65;64.87;100353.41;10340252;28;20128;-59
2024/01/14 01:24:55;;;;;;;16.65;6.63;;;;;;;2.64;65.18;100343.72;10339470;28;20077;-58
2024/01/14 01:29:56;;;;;;;23.45;7.32;;;;;;;2.57;65.47;100338.09;10331351;28;20046;-58
2024/01/14 01:34:58;;;;;;;19.70;6.85;;;;;;;2.53;65.43;100335.81;10336876;28;20069;-58
2024/01/14 01:39:59;;;;;;;17.73;7.45;;;;;;;2.42;65.50;100333.19;10342532;28;20049;-58
2024/01/14 01:45:01;;;;;;;20.27;6.78;;;;;;;2.43;65.21;100325.13;10340623;28;20058;-58
2024/01/14 01:50:04;;;;;;;19.65;7.10;;;;;;;2.36;65.72;100329.22;10334856;28;20046;-59
2024/01/14 01:55:06;;;;;;;21.00;6.80;;;;;;;2.29;65.42;100317.41;10339265;28;20046;-58
2024/01/14 02:00:08;;;;;;;21.92;8.60;;;;;;;2.31;65.41;100320.78;10342516;28;20053;-57
2024/01/14 02:05:10;;;;;;;22.45;7.32;;;;;;;2.31;65.56;100319.00;10338176;28;20050;-59
2024/01/14 02:10:12;;;;;;;19.80;7.82;;;;;;;2.18;66.03;100313.81;10339200;28;20062;-59
2024/01/14 02:15:13;;;;;;;19.80;7.45;;;;;;;2.14;65.99;100317.69;10333978;28;20124;-59
2024/01/14 02:20:15;;;;;;;17.27;5.68;;;;;;;2.08;66.72;100302.25;10335375;28;20129;-59
2024/01/14 02:25:17;;;;;;;24.90;7.20;;;;;;;2.07;66.62;100299.72;10340940;28;20067;-59
2024/01/14 02:30:19;;;;;;;20.40;7.38;;;;;;;1.97;66.69;100302.25;10336662;28;20401;-58
2024/01/14 02:35:20;;;;;;;17.98;6.93;;;;;;;1.95;67.22;100290.94;10334899;28;20042;-59
2024/01/14 02:40:22;;;;;;;24.27;8.30;;;;;;;1.97;67.24;100283.72;10334525;28;20054;-56
2024/01/14 02:45:23;;;;;;;21.67;8.40;;;;;;;1.96;67.35;100276.75;10337660;28;20062;-59
2024/01/14 02:50:24;;;;;;;21.08;7.95;;;;;;;1.85;67.35;100263.50;10333682;28;20057;-57
2024/01/14 02:55:26;;;;;;;16.77;6.82;;;;;;;1.87;66.96;100266.84;10333583;28;20058;-58
2024/01/14 03:00:27;;;;;;;24.63;7.07;;;;;;;1.81;67.44;100252.28;10330568;28;20050;-57
2024/01/14 03:05:29;;;;;;;24.42;7.30;;;;;;;1.82;68.05;100253.13;10335187;28;20064;-57
2024/01/14 03:10:30;;;;;;;30.20;9.13;;;;;;;1.79;68.12;100252.41;10317775;28;20430;-59
2024/01/14 03:15:32;;;;;;;24.50;7.55;;;;;;;1.75;67.80;100247.47;10333277;28;20362;-58
2024/01/14 03:20:34;;;;;;;22.23;7.00;;;;;;;1.73;68.47;100241.47;10334553;28;20066;-59
2024/01/14 03:25:35;;;;;;;22.23;7.00;;;;;;;1.75;68.43;100235.06;10335874;28;20058;-58
2024/01/14 03:30:36;;;;;;;23.85;7.90;;;;;;;1.72;67.96;100231.84;10335325;28;20053;-59
2024/01/14 03:35:38;;;;;;;23.20;7.28;;;;;;;1.77;68.51;100233.13;10333802;28;20049;-58
2024/01/14 03:40:39;;;;;;;20.92;7.22;;;;;;;1.74;68.29;100228.09;10334113;28;20049;-58
2024/01/14 03:45:41;;;;;;;23.02;8.18;;;;;;;1.79;67.89;100233.84;10330890;28;20524;-59
2024/01/14 03:50:43;;;;;;;21.20;6.97;;;;;;;1.77;68.05;100205.78;10336864;28;20064;-59
2024/01/14 03:55:47;;;;;;;28.48;7.88;;;;;;;1.61;68.51;100184.16;10331833;28;20042;-59
2024/01/14 04:00:48;;;;;;;26.85;8.15;;;;;;;1.50;68.41;100179.69;10339881;28;20046;-59
2024/01/14 04:05:50;;;;;;;27.58;8.10;;;;;;;1.48;68.25;100178.97;10336122;28;20519;-59
2024/01/14 04:10:52;;;;;;;27.02;8.23;;;;;;;1.48;68.27;100165.72;10324690;28;20042;-59
2024/01/14 04:15:56;;;;;;;28.00;7.38;;;;;;;1.47;68.48;100164.91;10334395;28;20050;-59
2024/01/14 04:21:02;;;;;;;26.77;7.30;;;;;;;1.47;68.67;100193.19;10338249;28;20050;-59
2024/01/14 04:26:05;;;;;;;25.80;8.15;;;;;;;1.59;68.43;100190.41;10333625;28;20065;-56
2024/01/14 04:31:07;;;;;;;22.02;7.75;;;;;;;1.65;68.11;100191.72;10336468;28;20133;-58
2024/01/14 04:36:09;;;;;;;23.00;7.97;;;;;;;1.64;68.73;100166.22;10339881;28;20058;-57
2024/01/14 04:41:11;;;;;;;19.67;7.10;;;;;;;1.77;67.95;100179.31;10329993;28;20085;-58
2024/01/14 04:46:12;;;;;;;20.67;6.70;;;;;;;1.79;67.98;100170.25;10327965;28;20053;-58
2024/01/14 04:51:13;;;;;;;18.00;6.47;;;;;;;1.84;67.71;100159.31;10340317;28;20084;-58
2024/01/14 04:56:15;;;;;;;21.65;7.00;;;;;;;1.67;68.08;100152.69;10339424;28;20051;-57
2024/01/14 05:01:17;;;;;;;21.70;8.43;;;;;;;1.63;68.42;100145.13;10338158;28;20138;-57
2024/01/14 05:06:18;;;;;;;20.85;6.22;;;;;;;1.63;69.06;100138.03;10326813;28;20682;-58
2024/01/14 05:11:20;;;;;;;19.08;6.45;;;;;;;1.64;68.42;100138.84;10337433;28;20060;-60
2024/01/14 05:16:21;;;;;;;21.23;7.07;;;;;;;1.67;68.64;100126.22;10336849;28;20392;-59
2024/01/14 05:21:23;;;;;;;21.38;6.78;;;;;;;1.72;67.92;100128.50;10337800;28;20054;-58
2024/01/14 05:26:24;;;;;;;24.48;6.88;;;;;;;1.63;68.53;100119.47;10342716;28;20153;-58
2024/01/14 05:31:27;;;;;;;18.83;7.47;;;;;;;1.56;68.80;100132.38;10334230;28;20532;-58
2024/01/14 05:36:29;;;;;;;21.30;7.25;;;;;;;1.69;68.43;100126.94;10336887;28;20066;-58
2024/01/14 05:41:31;;;;;;;17.88;7.88;;;;;;;1.77;68.10;100143.03;10334572;28;20047;-59
2024/01/14 05:46:32;;;;;;;23.45;8.35;;;;;;;1.88;68.22;100142.19;10340306;28;20058;-58
2024/01/14 05:51:34;;;;;;;19.75;7.32;;;;;;;1.78;68.59;100112.09;10332294;28;20512;-59
2024/01/14 05:56:35;;;;;;;19.40;6.20;;;;;;;1.70;68.57;100125.09;10335990;28;20065;-58
2024/01/14 06:01:37;;;;;;;23.80;8.25;;;;;;;1.64;68.82;100120.31;10332908;28;20065;-57
2024/01/14 06:06:38;;;;;;;23.45;6.15;;;;;;;1.68;68.59;100125.25;10339117;28;20054;-58
2024/01/14 06:11:40;;;;;;;27.25;7.20;;;;;;;1.69;68.34;100124.28;10335339;28;20059;-57
2024/01/14 06:16:41;;;;;;;20.27;6.60;;;;;;;1.69;68.36;100121.63;10333286;28;20057;-58
2024/01/14 06:21:43;;;;;;;25.65;8.15;;;;;;;1.67;67.84;100130.69;10337033;28;20062;-57
2024/01/14 06:26:44;;;;;;;19.30;7.38;;;;;;;1.64;68.04;100121.19;10334781;28;20057;-58
2024/01/14 06:31:47;;;;;;;19.17;6.93;;;;;;;1.60;68.07;100114.44;10336920;28;20152;-57
2024/01/14 06:36:48;;;;;;;24.75;7.97;;;;;;;1.65;68.56;100119.38;10338556;28;20065;-57
2024/01/14 06:41:51;;;;;;;21.92;8.68;;;;;;;1.52;68.00;100107.13;10339056;28;20132;-57
2024/01/14 06:46:53;;;;;;;20.85;6.43;;;;;;;1.56;68.04;100103.25;10321677;28;20054;-57
2024/01/14 06:51:54;;;;;;;18.30;6.43;;;;;;;1.52;67.89;100093.00;10336263;28;20535;-57
2024/01/14 06:56:56;;;;;;;21.13;7.82;;;;;;;1.43;68.42;100096.41;10331297;28;20058;-57
2024/01/14 07:01:57;;;;;;;24.48;7.32;;;;;;;1.44;68.31;100088.31;10336356;28;20474;-57
2024/01/14 07:06:58;;;;;;;22.40;7.97;;;;;;;1.47;68.43;100089.91;10333326;28;20054;-56
2024/01/14 07:12:01;;;;;;;20.73;7.35;;;;;;;1.44;67.68;100087.50;10319531;28;20493;-57
2024/01/14 07:17:02;;;;;;;30.02;7.93;;;;;;;1.39;68.42;100086.06;10341304;28;20066;-57
2024/01/14 07:22:06;;;;;;;25.92;7.82;;;;;;;1.47;67.46;100089.91;10376438;28;20041;-60
2024/01/14 07:27:07;;;;;;;28.85;8.65;;;;;;;1.47;67.69;100095.19;10380334;28;20044;-60
2024/01/14 07:32:09;;;;;;;33.45;10.63;;;;;;;1.42;68.45;100092.91;10389434;28;20061;-61
2024/01/14 07:37:10;;;;;;;38.85;12.48;;;;;;;1.39;68.39;100078.13;10384698;28;20053;-61
2024/01/14 07:42:12;;;;;;;42.83;13.65;;;;;;;1.36;68.42;100088.09;10386925;28;20057;-60
2024/01/14 07:47:13;;;;;;;38.35;11.98;;;;;;;1.38;67.56;100095.00;10384321;28;20057;-60
2024/01/14 07:52:18;;;;;;;29.50;10.20;;;;;;;1.38;67.46;100091.47;10390981;28;20054;-61
2024/01/14 07:57:19;;;;;;;35.90;10.38;;;;;;;1.33;67.67;100081.25;10374860;28;20437;-65
2024/01/14 08:02:21;;;;;;;33.03;11.90;;;;;;;1.39;68.13;100080.75;10333906;28;20046;-64
2024/01/14 08:07:22;;;;;;;36.83;12.70;;;;;;;1.28;67.98;100078.13;10335124;28;20089;-64
2024/01/14 08:12:23;;;;;;;37.38;9.95;;;;;;;1.36;68.16;100077.50;10335285;28;20053;-64
2024/01/14 08:17:26;;;;;;;40.60;11.55;;;;;;;1.41;67.70;100066.56;10334355;28;20132;-65
2024/01/14 08:22:27;;;;;;;33.22;9.52;;;;;;;1.35;68.05;100066.09;10339890;28;20078;-64
2024/01/14 08:27:30;;;;;;;33.83;11.52;;;;;;;1.32;68.06;100069.00;10342119;28;20093;-65
2024/01/14 08:32:31;;;;;;;30.95;10.30;;;;;;;1.47;67.87;100053.66;10323820;28;20050;-64
2024/01/14 08:37:33;;;;;;;33.55;11.98;;;;;;;1.44;68.11;100063.66;10346209;28;20161;-62
2024/01/14 08:42:34;;;;;;;31.23;11.93;;;;;;;1.39;68.04;100053.44;10340570;28;20068;-65
2024/01/14 08:47:36;;;;;;;34.22;8.85;;;;;;;1.37;67.64;100053.56;10341448;28;20064;-63
2024/01/14 08:52:38;;;;;;;34.35;10.93;;;;;;;1.47;67.86;100040.41;10338851;28;20050;-65
2024/01/14 08:57:39;;;;;;;37.22;11.40;;;;;;;1.47;67.74;100044.88;10343160;28;20409;-64
2024/01/14 09:02:41;;;;;;;40.30;11.45;;;;;;;1.48;68.04;100043.91;10348238;28;20084;-67
2024/01/14 09:07:43;;;;;;;31.60;10.25;;;;;;;1.46;67.62;100049.34;10351000;28;20129;-62
2024/01/14 09:12:44;;;;;;;31.80;9.27;;;;;;;1.39;67.51;100042.84;10359132;28;20056;-62
2024/01/14 09:17:46;;;;;;;37.08;11.93;;;;;;;1.52;67.22;100050.63;10344578;28;20054;-60
2024/01/14 09:22:47;;;;;;;34.25;10.18;;;;;;;1.56;67.66;100067.94;10358662;28;20045;-62
2024/01/14 09:27:50;;;;;;;32.65;10.93;;;;;;;1.51;67.69;100051.63;10360749;28;20057;-62
2024/01/14 09:32:51;;;;;;;33.03;9.75;;;;;;;1.56;67.36;100050.28;10350651;28;20056;-65
2024/01/14 09:37:52;;;;;;;28.25;9.23;;;;;;;1.55;67.42;100045.94;10349304;28;20050;-63
2024/01/14 09:42:59;;;;;;;32.00;8.10;;;;;;;1.60;67.47;100050.88;10352373;28;20114;-61
2024/01/14 09:48:02;;;;;;;30.73;9.65;;;;;;;1.63;67.37;100047.94;10353024;28;20093;-62
2024/01/14 09:53:09;;;;;;;39.97;10.73;;;;;;;1.60;67.17;100056.16;10356490;28;20113;-63
2024/01/14 09:58:12;;;;;;;37.60;10.15;;;;;;;1.58;66.99;100060.75;10353548;28;20050;-62
2024/01/14 10:03:14;;;;;;;37.17;9.60;;;;;;;1.64;67.33;100052.28;10359873;28;20034;-62
2024/01/14 10:08:15;;;;;;;35.60;10.00;;;;;;;1.65;67.17;100051.31;10397577;28;20045;-61
2024/01/14 10:13:17;;;;;;;27.60;8.90;;;;;;;1.68;66.57;100051.06;10384819;28;20053;-61
2024/01/14 10:18:18;;;;;;;26.65;9.60;;;;;;;1.78;66.37;100046.69;10371688;28;20306;-61
2024/01/14 10:23:25;;;;;;;28.02;7.75;;;;;;;1.82;66.23;100034.03;10393084;28;20038;-62
2024/01/14 10:28:34;;;;;;;34.07;9.67;;;;;;;1.85;66.41;100022.34;10391099;28;20061;-62
2024/01/14 10:33:36;;;;;;;32.47;9.68;;;;;;;1.90;66.95;100005.06;10389444;28;20033;-62
2024/01/14 10:38:37;;;;;;;22.33;6.88;;;;;;;1.90;66.87;99994.47;10389445;28;20060;-61
2024/01/14 10:43:40;;;;;;;27.20;8.10;;;;;;;1.97;66.80;99982.41;10392359;28;20034;-62
2024/01/14 10:48:49;;;;;;;25.20;6.93;;;;;;;2.05;66.88;99973.78;10392907;28;20142;-62
2024/01/14 10:54:09;;;;;;;26.55;7.50;;;;;;;2.04;66.92;99969.47;10387945;28;20057;-62
2024/01/14 10:59:13;;;;;;;19.88;6.50;;;;;;;2.09;66.35;99961.94;10391103;28;20050;-62
2024/01/14 11:04:17;;;;;;;25.63;6.35;;;;;;;2.15;66.72;99961.44;10392974;28;20070;-62
2024/01/14 11:09:18;;;;;;;21.45;7.95;;;;;;;2.26;66.39;99954.38;10386315;28;20026;-62
2024/01/14 11:14:29;;;;;;;23.63;7.82;;;;;;;2.42;66.20;99933.47;10379538;28;20043;-62
2024/01/14 11:19:34;;;;;;;22.88;6.20;;;;;;;2.54;65.62;99928.91;10386216;28;20050;-62
2024/01/14 11:24:39;;;;;;;22.75;7.50;;;;;;;2.50;65.50;99917.72;10381021;28;20075;-62
2024/01/14 11:29:41;;;;;;;22.00;6.80;;;;;;;2.68;65.76;99915.25;10368547;28;20044;-61
2024/01/14 11:34:49;;;;;;;23.95;6.35;;;;;;;2.75;65.48;99895.19;10348606;28;20721;-61
2024/01/14 11:39:51;;;;;;;18.35;5.70;;;;;;;2.80;65.26;99883.31;10358376;28;20050;-60
2024/01/14 11:44:53;;;;;;;20.23;6.32;;;;;;;2.82;65.12;99884.84;10364619;28;20050;-61
2024/01/14 11:49:54;;;;;;;16.27;5.95;;;;;;;2.91;65.13;99878.72;10362157;28;20042;-62
2024/01/14 11:54:56;;;;;;;20.77;6.55;;;;;;;2.99;65.04;99856.78;10367094;28;20122;-60
2024/01/14 11:59:58;;;;;;;20.50;7.43;;;;;;;2.83;65.14;99853.84;10372821;28;20054;-62
2024/01/14 12:05:19;;;;;;;21.90;7.88;;;;;;;2.92;64.58;99837.94;10378624;28;20092;-62
2024/01/14 12:10:21;;;;;;;16.30;5.30;;;;;;;2.91;64.68;99828.28;10374550;28;20540;-61
2024/01/14 12:15:22;;;;;;;19.85;6.70;;;;;;;2.82;64.88;99823.78;10372871;28;20112;-61
2024/01/14 12:20:25;;;;;;;19.25;6.95;;;;;;;2.92;64.75;99811.38;10374343;28;20054;-60
2024/01/14 12:25:26;;;;;;;19.02;8.85;;;;;;;2.89;64.87;99801.03;10377198;28;20048;-60
2024/01/14 12:30:34;;;;;;;20.77;6.95;;;;;;;2.96;64.26;99790.69;10370024;28;20492;-61
2024/01/14 12:35:37;;;;;;;23.20;7.03;;;;;;;3.08;64.22;99776.31;10373319;28;20396;-60
2024/01/14 12:40:39;;;;;;;21.27;7.15;;;;;;;3.02;64.58;99760.09;10354523;28;20078;-66
2024/01/14 12:45:48;;;;;;;27.85;9.30;;;;;;;3.10;64.30;99763.72;10345730;28;20133;-66
2024/01/14 12:50:58;;;;;;;29.17;9.15;;;;;;;2.96;64.09;99761.47;10346778;28;20137;-65
2024/01/14 12:56:16;;;;;;;23.85;6.80;;;;;;;2.92;64.53;99745.03;10348908;28;20172;-64
2024/01/14 13:01:18;;;;;;;27.40;7.90;;;;;;;2.91;64.11;99731.88;10348988;28;20564;-66
2024/01/14 13:06:20;;;;;;;20.17;8.07;;;;;;;3.02;63.84;99725.56;10352307;28;20062;-64
2024/01/14 13:11:22;;;;;;;26.75;7.65;;;;;;;2.86;64.15;99729.63;10339832;28;20073;-65
2024/01/14 13:16:23;;;;;;;31.08;8.45;;;;;;;2.94;64.13;99720.97;10338641;28;20050;-66
2024/01/14 13:21:25;;;;;;;16.63;5.75;;;;;;;2.74;64.39;99714.84;10336569;28;20054;-66
2024/01/14 13:26:28;;;;;;;17.90;6.68;;;;;;;2.83;64.18;99702.56;10342526;28;20129;-65
2024/01/14 13:31:31;;;;;;;17.83;6.18;;;;;;;2.88;63.91;99687.88;10342638;28;20057;-63
2024/01/14 13:36:33;;;;;;;23.52;6.82;;;;;;;2.93;64.10;99667.06;10338063;28;20046;-66
2024/01/14 13:41:34;;;;;;;23.15;8.25;;;;;;;2.89;63.97;99656.88;10338757;28;20060;-66
2024/01/14 13:46:35;;;;;;;22.20;7.00;;;;;;;2.94;63.83;99644.00;10334737;28;20481;-65
2024/01/14 13:51:38;;;;;;;28.60;8.85;;;;;;;2.92;63.78;99652.13;10334706;28;20133;-66
2024/01/14 13:56:40;;;;;;;27.30;7.82;;;;;;;2.93;63.77;99667.06;10340040;28;20523;-65
2024/01/14 14:01:42;;;;;;;22.85;8.05;;;;;;;3.09;63.56;99661.13;10321238;28;20137;-66
2024/01/14 14:06:44;;;;;;;26.63;8.30;;;;;;;2.85;63.80;99658.97;10338832;28;20043;-66
2024/01/14 14:11:45;;;;;;;25.50;7.75;;;;;;;2.84;63.81;99651.97;10319841;28;20049;-66
2024/01/14 14:16:49;;;;;;;20.67;7.30;;;;;;;2.80;64.19;99647.94;10324259;28;20048;-64
2024/01/14 14:21:53;;;;;;;20.23;7.18;;;;;;;2.72;63.87;99653.97;10331934;28;20412;-66
2024/01/14 14:27:01;;;;;;;25.05;8.27;;;;;;;2.58;63.89;99641.97;10321439;28;20165;-66
2024/01/14 14:32:03;;;;;;;26.13;8.13;;;;;;;2.58;64.04;99636.66;10334233;28;20054;-66
2024/01/14 14:37:05;;;;;;;23.52;7.65;;;;;;;2.53;63.83;99641.59;10337573;28;20064;-66
2024/01/14 14:42:07;;;;;;;33.58;12.50;;;;;;;2.46;63.91;99627.19;10316766;28;20054;-65
2024/01/14 14:47:08;;;;;;;33.72;10.45;;;;;;;2.37;63.83;99628.91;10336077;28;20058;-65
2024/01/14 14:52:10;;;;;;;30.95;9.18;;;;;;;2.33;64.35;99624.00;10316912;28;20289;-65
2024/01/14 14:57:11;;;;;;;23.90;8.20;;;;;;;2.29;64.15;99617.31;10336104;28;20069;-67
2024/01/14 15:02:13;;;;;;;27.02;8.48;;;;;;;2.22;64.34;99616.22;10317937;28;20050;-66
2024/01/14 15:07:14;;;;;;;25.30;7.63;;;;;;;2.05;64.36;99621.22;10337137;28;20050;-66
2024/01/14 15:12:16;;;;;;;27.95;8.52;;;;;;;1.97;64.69;99613.13;10331519;28;20101;-66
2024/01/14 15:17:18;;;;;;;28.10;8.70;;;;;;;1.91;65.09;99597.78;10332368;28;20138;-66
2024/01/14 15:22:19;;;;;;;26.90;7.95;;;;;;;1.84;64.54;99578.97;10332598;28;20061;-62
2024/01/14 15:27:21;;;;;;;19.48;6.30;;;;;;;1.83;64.53;99587.06;10334373;28;20060;-66
2024/01/14 15:32:23;;;;;;;27.65;9.68;;;;;;;1.85;65.28;99570.03;10335564;28;20057;-65
2024/01/14 15:37:25;;;;;;;28.33;8.88;;;;;;;1.85;65.04;99563.91;10339641;28;20066;-65
2024/01/14 15:42:26;;;;;;;31.15;7.97;;;;;;;1.81;65.16;99557.22;10335096;28;20070;-65
2024/01/14 15:47:28;;;;;;;31.35;9.43;;;;;;;1.66;65.39;99551.47;10340010;28;20049;-65
2024/01/14 15:52:29;;;;;;;33.20;9.32;;;;;;;1.65;65.01;99553.28;10334117;28;20050;-66
2024/01/14 15:57:30;;;;;;;26.30;9.25;;;;;;;1.62;65.28;99555.38;10333504;28;20137;-66
2024/01/14 16:02:32;;;;;;;29.40;10.63;;;;;;;1.59;65.77;99540.59;10341366;28;20595;-62
2024/01/14 16:07:33;;;;;;;30.98;10.13;;;;;;;1.54;65.82;99537.53;10347725;28;20073;-61
2024/01/14 16:12:35;;;;;;;31.00;9.20;;;;;;;1.54;65.24;99532.22;10343343;28;20046;-61
2024/01/14 16:17:37;;;;;;;31.00;8.30;;;;;;;1.59;65.82;99517.59;10344735;28;20592;-61
2024/01/14 16:22:38;;;;;;;30.30;9.63;;;;;;;1.48;66.11;99507.16;10342617;28;20074;-61
2024/01/14 16:27:39;;;;;;;29.00;9.25;;;;;;;1.51;66.26;99506.88;10332181;28;20046;-57
2024/01/14 16:32:42;;;;;;;32.13;10.10;;;;;;;1.48;65.57;99499.22;10320464;28;20046;-59
2024/01/14 16:37:44;;;;;;;30.35;10.30;;;;;;;1.41;66.14;99500.72;10340326;28;20413;-57
2024/01/14 16:42:47;;;;;;;28.45;10.27;;;;;;;1.31;66.57;99502.53;10320232;28;20050;-57
2024/01/14 16:47:49;;;;;;;27.23;9.10;;;;;;;1.28;66.06;99497.50;10343059;28;20050;-57
2024/01/14 16:52:50;;;;;;;29.00;9.70;;;;;;;1.25;66.78;99488.03;10311604;28;20131;-56
2024/01/14 16:57:52;;;;;;;28.88;10.00;;;;;;;1.24;66.00;99482.88;10329260;28;20078;-59
2024/01/14 17:02:53;;;;;;;22.67;8.52;;;;;;;1.17;67.09;99479.94;10330096;28;20104;-58
2024/01/14 17:07:55;;;;;;;28.58;10.27;;;;;;;1.20;66.37;99471.72;10346568;28;20085;-58
2024/01/14 17:12:57;;;;;;;27.25;9.43;;;;;;;1.15;66.31;99476.59;10345105;28;20077;-59
2024/01/14 17:17:59;;;;;;;25.73;8.77;;;;;;;1.15;66.61;99466.03;10313589;28;20058;-57
2024/01/14 17:23:01;;;;;;;33.95;11.20;;;;;;;1.10;67.07;99452.34;10345522;28;20097;-58
2024/01/14 17:28:03;;;;;;;27.50;9.32;;;;;;;0.99;67.07;99437.44;10344644;28;20058;-58
2024/01/14 17:33:04;;;;;;;26.02;9.32;;;;;;;1.10;67.04;99425.88;10335456;28;20046;-58
2024/01/14 17:38:06;;;;;;;27.98;8.02;;;;;;;1.04;67.07;99429.91;10343746;28;20065;-58
2024/01/14 17:43:08;;;;;;;31.23;9.85;;;;;;;1.07;67.00;99426.19;10348545;28;20074;-57
2024/01/14 17:48:10;;;;;;;30.25;9.38;;;;;;;1.08;66.66;99425.19;10329760;28;20053;-58
2024/01/14 17:53:12;;;;;;;29.70;9.15;;;;;;;0.95;67.05;99413.06;10346538;28;20042;-58
2024/01/14 17:58:13;;;;;;;30.70;7.88;;;;;;;0.89;67.34;99404.81;10321502;28;20072;-58
2024/01/14 18:03:15;;;;;;;27.92;8.18;;;;;;;1.02;66.89;99413.34;10340855;28;20042;-58
2024/01/14 18:08:16;;;;;;;29.20;9.02;;;;;;;1.02;66.81;99410.69;10322697;28;20050;-57
2024/01/14 18:13:18;;;;;;;28.23;9.10;;;;;;;1.02;66.16;99415.16;10345161;28;20057;-57
2024/01/14 18:18:20;;;;;;;33.17;8.70;;;;;;;0.87;66.67;99418.22;10324291;28;20062;-58
2024/01/14 18:23:21;;;;;;;29.00;10.23;;;;;;;0.83;66.99;99418.59;10336178;28;20042;-58
2024/01/14 18:28:24;;;;;;;27.90;8.45;;;;;;;0.88;66.84;99403.16;10337388;28;20050;-58
2024/01/14 18:33:25;;;;;;;29.55;9.00;;;;;;;0.77;67.71;99391.75;10340699;28;20053;-58
2024/01/14 18:38:27;;;;;;;28.35;8.98;;;;;;;0.72;67.09;99393.13;10339418;28;20049;-57
2024/01/14 18:43:29;;;;;;;26.90;8.63;;;;;;;0.67;67.54;99380.31;10337433;28;20510;-57
2024/01/14 18:48:30;;;;;;;32.78;9.57;;;;;;;0.70;67.40;99374.75;10343064;28;20057;-56
2024/01/14 18:53:32;;;;;;;29.30;9.27;;;;;;;0.69;67.50;99367.78;10339573;28;20053;-57
2024/01/14 18:58:33;;;;;;;34.65;10.85;;;;;;;0.67;67.59;99374.19;10337444;28;20042;-58
2024/01/14 19:03:37;;;;;;;33.13;10.85;;;;;;;0.67;66.83;99366.25;10334196;28;20053;-59
2024/01/14 19:08:38;;;;;;;32.15;9.43;;;;;;;0.74;67.20;99351.50;10336718;28;20504;-58
2024/01/14 19:13:40;;;;;;;33.88;9.82;;;;;;;0.66;67.47;99352.19;10339273;28;20060;-57
2024/01/14 19:18:41;;;;;;;34.58;10.73;;;;;;;0.65;66.78;99352.31;10343824;28;20053;-58
2024/01/14 19:23:46;;;;;;;31.83;9.80;;;;;;;0.63;67.66;99341.88;10337326;28;20054;-57
2024/01/14 19:28:47;;;;;;;39.15;11.10;;;;;;;0.63;67.26;99339.22;10338859;28;20057;-59
2024/01/14 19:33:48;;;;;;;30.95;10.95;;;;;;;0.62;66.73;99334.94;10353686;28;20502;-59
2024/01/14 19:38:50;;;;;;;36.38;10.63;;;;;;;0.63;67.18;99341.88;10359125;28;20046;-60
2024/01/14 19:43:51;;;;;;;30.75;10.10;;;;;;;0.62;67.78;99339.38;10374247;28;20064;-59
2024/01/14 19:48:53;;;;;;;34.13;11.50;;;;;;;0.58;67.16;99342.28;10365841;28;20050;-59
2024/01/14 19:53:55;;;;;;;37.95;14.18;;;;;;;0.53;67.32;99339.25;10367746;28;20050;-60
2024/01/14 19:58:56;;;;;;;33.28;13.07;;;;;;;0.54;67.20;99340.91;10371827;28;20056;-59
2024/01/14 20:03:58;;;;;;;32.70;11.30;;;;;;;0.53;68.12;99327.81;10374819;28;20105;-60
2024/01/14 20:09:02;;;;;;;37.85;11.05;;;;;;;0.54;67.48;99321.56;10336586;28;20080;-57
2024/01/14 20:14:04;;;;;;;33.08;11.00;;;;;;;0.58;67.51;99326.44;10336842;28;20055;-57
2024/01/14 20:19:05;;;;;;;34.13;10.02;;;;;;;0.66;67.02;99312.53;10340520;28;20877;-57
2024/01/14 20:24:11;;;;;;;39.13;10.65;;;;;;;0.74;67.71;99320.59;10341369;28;20064;-58
2024/01/14 20:29:13;;;;;;;41.38;12.40;;;;;;;0.78;67.63;99329.09;10347476;28;20447;-57
2024/01/14 20:34:14;;;;;;;35.60;10.27;;;;;;;0.79;66.89;99321.03;10349965;28;20048;-57
2024/01/14 20:39:16;;;;;;;37.67;11.60;;;;;;;0.85;67.51;99319.63;10345659;28;20077;-57
2024/01/14 20:44:18;;;;;;;34.72;9.68;;;;;;;0.74;66.73;99311.84;10347140;28;20148;-57
2024/01/14 20:49:19;;;;;;;34.90;11.13;;;;;;;0.72;66.87;99311.97;10348974;28;20057;-57
2024/01/14 20:54:21;;;;;;;31.67;10.93;;;;;;;0.74;66.76;99312.66;10329621;28;20366;-57
2024/01/14 20:59:23;;;;;;;29.88;11.20;;;;;;;0.67;66.76;99316.84;10344972;28;20050;-57
2024/01/14 21:04:25;;;;;;;39.17;11.68;;;;;;;0.66;67.45;99311.69;10347025;28;20508;-58
2024/01/14 21:09:26;;;;;;;29.80;10.20;;;;;;;0.71;66.95;99283.88;10346513;28;20050;-59
2024/01/14 21:14:28;;;;;;;30.40;9.38;;;;;;;0.63;66.93;99281.06;10345013;28;20111;-58
2024/01/14 21:19:30;;;;;;;34.58;10.05;;;;;;;0.58;66.91;99256.84;10328163;28;20052;-58
2024/01/14 21:24:33;;;;;;;29.92;8.95;;;;;;;0.40;67.00;99254.06;10344860;28;20113;-57
2024/01/14 21:29:34;;;;;;;22.05;7.53;;;;;;;0.43;67.27;99272.28;10342569;28;20698;-57
2024/01/14 21:34:36;;;;;;;19.80;8.15;;;;;;;0.39;66.51;99263.81;10340544;28;20050;-58
2024/01/14 21:39:38;;;;;;;27.85;8.55;;;;;;;0.39;67.20;99266.47;10337923;28;20128;-59
2024/01/14 21:44:40;;;;;;;25.15;6.82;;;;;;;0.43;66.47;99279.38;10336828;28;20050;-57
2024/01/14 21:49:41;;;;;;;20.08;6.00;;;;;;;0.64;66.48;99258.94;10340531;28;20056;-56
2024/01/14 21:54:43;;;;;;;18.40;5.80;;;;;;;0.51;66.45;99245.16;10347015;28;20060;-57
2024/01/14 21:59:45;;;;;;;16.30;5.95;;;;;;;0.42;66.71;99236.25;10337021;28;20054;-57
2024/01/14 22:04:46;;;;;;;20.75;5.80;;;;;;;0.36;66.67;99239.47;10340636;28;20050;-58
2024/01/14 22:09:48;;;;;;;14.43;4.82;;;;;;;0.33;66.41;99242.38;10339369;28;20540;-57
2024/01/14 22:14:49;;;;;;;19.45;5.93;;;;;;;0.30;66.56;99240.84;10339144;28;20523;-58
2024/01/14 22:19:50;;;;;;;20.92;6.95;;;;;;;0.24;67.19;99237.91;10334511;28;20694;-57
2024/01/14 22:24:54;;;;;;;21.15;6.25;;;;;;;0.28;67.04;99244.59;10341391;28;20154;-58
2024/01/14 22:29:55;;;;;;;18.98;6.22;;;;;;;0.31;66.24;99250.44;10343935;28;20140;-57
2024/01/14 22:34:57;;;;;;;21.63;7.38;;;;;;;0.31;66.97;99254.88;10340305;28;20065;-59
2024/01/14 22:39:58;;;;;;;26.85;7.10;;;;;;;0.32;66.72;99244.19;10325009;28;20601;-58
2024/01/14 22:45:00;;;;;;;24.60;8.80;;;;;;;0.30;66.32;99253.22;10343560;28;20077;-58
2024/01/14 22:50:02;;;;;;;17.98;5.57;;;;;;;0.28;66.84;99248.06;10335203;28;20504;-58
2024/01/14 22:55:04;;;;;;;16.30;6.18;;;;;;;0.28;67.17;99248.06;10335413;28;20049;-58
2024/01/14 23:00:12;;;;;;;21.60;7.32;;;;;;;0.23;66.30;99249.47;10335564;28;20057;-59
2024/01/14 23:05:14;;;;;;;20.20;6.40;;;;;;;0.23;67.08;99258.22;10336357;28;20097;-58
2024/01/14 23:10:16;;;;;;;22.83;6.63;;;;;;;0.28;67.18;99255.19;10336452;28;20524;-58
2024/01/14 23:15:17;;;;;;;18.63;5.78;;;;;;;0.28;66.47;99258.66;10321153;28;20060;-57